createdAt,value
2022-12-18T00:00:06.575Z,-9.82
2022-12-18T00:01:06.634Z,-9.88
2022-12-18T00:02:06.657Z,-9.88
2022-12-18T00:03:06.717Z,-9.84
2022-12-18T00:04:06.757Z,-9.85
2022-12-18T00:05:06.478Z,-9.85
2022-12-18T00:06:06.537Z,-9.78
2022-12-18T00:07:06.955Z,-9.82
2022-12-18T00:08:09.230Z,-9.81
2022-12-18T00:09:07.118Z,-9.84
2022-12-18T00:10:06.415Z,-9.82
2022-12-18T00:11:06.976Z,-9.84
2022-12-18T00:13:09.957Z,-9.85
2022-12-18T00:14:06.375Z,-9.85
2022-12-18T00:15:07.007Z,-9.87
2022-12-18T00:16:07.303Z,-9.87
2022-12-18T00:17:06.908Z,-9.87
2022-12-18T00:18:07.073Z,-9.92
2022-12-18T00:19:06.323Z,-9.92
2022-12-18T00:20:06.542Z,-9.92
2022-12-18T00:21:06.302Z,-9.90
2022-12-18T00:22:06.423Z,-9.90
2022-12-18T00:23:07.112Z,-9.88
2022-12-18T00:24:06.277Z,-9.85
2022-12-18T00:25:06.252Z,-9.82
2022-12-18T00:26:06.235Z,-9.85
2022-12-18T00:27:06.551Z,-9.84
2022-12-18T00:28:06.232Z,-9.87
2022-12-18T00:29:06.202Z,-9.85
2022-12-18T00:30:06.219Z,-9.87
2022-12-18T00:31:06.301Z,-9.92
2022-12-18T00:32:06.356Z,-9.90
2022-12-18T00:33:06.239Z,-9.97
2022-12-18T00:34:06.178Z,-9.92
2022-12-18T00:35:06.128Z,-9.93
2022-12-18T00:36:06.111Z,-9.88
2022-12-18T00:37:06.237Z,-9.93
2022-12-18T00:38:06.339Z,-9.90
2022-12-18T00:39:06.079Z,-9.96
2022-12-18T00:40:06.141Z,-9.96
2022-12-18T00:41:06.057Z,-9.95
2022-12-18T00:42:06.446Z,-9.93
2022-12-18T00:43:06.035Z,-9.90
2022-12-18T00:44:06.041Z,-9.87
2022-12-18T00:45:12.114Z,-9.90
2022-12-18T00:46:07.183Z,-9.87
2022-12-18T00:47:06.575Z,-9.92
2022-12-18T00:48:05.974Z,-9.92
2022-12-18T00:49:05.957Z,-9.90
2022-12-18T00:50:05.949Z,-9.93
2022-12-18T00:51:06.054Z,-9.92
2022-12-18T00:52:05.955Z,-9.93
2022-12-18T00:53:06.595Z,-9.87
2022-12-18T00:54:05.917Z,-9.79
2022-12-18T00:55:06.762Z,-9.79
2022-12-18T00:56:06.633Z,-9.77
2022-12-18T00:57:06.650Z,-9.81
2022-12-18T00:58:05.852Z,-9.81
2022-12-18T00:59:05.843Z,-9.87
2022-12-18T01:00:05.833Z,-9.90
2022-12-18T01:01:06.047Z,-9.92
2022-12-18T01:02:06.146Z,-9.92
2022-12-18T01:03:05.916Z,-9.96
2022-12-18T01:04:06.132Z,-10.00
2022-12-18T01:05:05.782Z,-10.03
2022-12-18T01:06:05.760Z,-10.02
2022-12-18T01:07:06.311Z,-10.05
2022-12-18T01:08:05.738Z,-10.11
2022-12-18T01:09:05.733Z,-10.14
2022-12-18T01:10:05.718Z,-10.17
2022-12-18T01:11:05.710Z,-10.17
2022-12-18T01:12:05.900Z,-10.23
2022-12-18T01:13:06.640Z,-10.24
2022-12-18T01:14:05.667Z,-10.28
2022-12-18T01:15:05.669Z,-10.24
2022-12-18T01:16:05.713Z,-10.26
2022-12-18T01:17:06.527Z,-10.23
2022-12-18T01:18:06.428Z,-10.23
2022-12-18T01:19:05.608Z,-10.24
2022-12-18T01:20:05.612Z,-10.20
2022-12-18T01:21:05.598Z,-10.23
2022-12-18T01:22:05.598Z,-10.20
2022-12-18T01:23:06.469Z,-10.20
2022-12-18T01:24:06.367Z,-10.21
2022-12-18T01:25:05.545Z,-10.20
2022-12-18T01:26:06.438Z,-10.21
2022-12-18T01:27:06.345Z,-10.23
2022-12-18T01:28:05.511Z,-10.20
2022-12-18T01:29:05.505Z,-10.20
2022-12-18T01:30:05.484Z,-10.21
2022-12-18T01:31:05.475Z,-10.23
2022-12-18T01:32:05.733Z,-10.23
2022-12-18T01:33:05.770Z,-10.23
2022-12-18T01:34:05.433Z,-10.21
2022-12-18T01:35:05.881Z,-10.26
2022-12-18T01:36:05.453Z,-10.28
2022-12-18T01:37:05.991Z,-10.24
2022-12-18T01:38:05.391Z,-10.24
2022-12-18T01:39:05.385Z,-10.26
2022-12-18T01:40:06.116Z,-10.26
2022-12-18T01:41:05.373Z,-10.26
2022-12-18T01:42:05.381Z,-10.29
2022-12-18T01:43:05.336Z,-10.28
2022-12-18T01:44:06.043Z,-10.28
2022-12-18T01:45:05.313Z,-10.31
2022-12-18T01:46:05.320Z,-10.29
2022-12-18T01:47:05.323Z,-10.31
2022-12-18T01:48:05.831Z,-10.32
2022-12-18T01:49:06.019Z,-10.37
2022-12-18T01:50:05.251Z,-10.38
2022-12-18T01:51:06.089Z,-10.41
2022-12-18T01:52:05.248Z,-10.41
2022-12-18T01:53:06.897Z,-10.42
2022-12-18T01:54:05.200Z,-10.41
2022-12-18T01:55:05.240Z,-10.38
2022-12-18T01:56:06.108Z,-10.37
2022-12-18T01:57:05.291Z,-10.39
2022-12-18T01:58:05.239Z,-10.38
2022-12-18T01:59:05.148Z,-10.37
2022-12-18T02:00:05.126Z,-10.38
2022-12-18T02:01:05.131Z,-10.41
2022-12-18T02:02:05.287Z,-10.39
2022-12-18T02:03:05.482Z,-10.38
2022-12-18T02:04:05.502Z,-10.46
2022-12-18T02:05:05.075Z,-10.49
2022-12-18T02:06:05.057Z,-10.50
2022-12-18T02:07:05.107Z,-10.53
2022-12-18T02:08:05.045Z,-10.55
2022-12-18T02:09:05.024Z,-10.59
2022-12-18T02:10:05.802Z,-10.60
2022-12-18T02:11:05.030Z,-10.63
2022-12-18T02:12:05.023Z,-10.63
2022-12-18T02:13:04.983Z,-10.66
2022-12-18T02:14:04.974Z,-10.63
2022-12-18T02:15:05.733Z,-10.63
2022-12-18T02:16:04.993Z,-10.62
2022-12-18T02:17:05.043Z,-10.59
2022-12-18T02:18:05.791Z,-10.57
2022-12-18T02:19:05.289Z,-10.63
2022-12-18T02:20:04.902Z,-10.60
2022-12-18T02:21:05.763Z,-10.57
2022-12-18T02:22:04.902Z,-10.57
2022-12-18T02:23:04.861Z,-10.53
2022-12-18T02:24:04.850Z,-10.50
2022-12-18T02:25:05.637Z,-10.47
2022-12-18T02:26:05.800Z,-10.44
2022-12-18T02:27:04.920Z,-10.41
2022-12-18T02:28:04.809Z,-10.41
2022-12-18T02:29:04.796Z,-10.35
2022-12-18T02:30:04.780Z,-10.41
2022-12-18T02:31:05.135Z,-10.41
2022-12-18T02:32:05.092Z,-10.41
2022-12-18T02:33:04.748Z,-10.35
2022-12-18T02:34:05.195Z,-10.38
2022-12-18T02:35:05.259Z,-10.34
2022-12-18T02:36:04.718Z,-10.34
2022-12-18T02:37:05.367Z,-10.35
2022-12-18T02:38:04.688Z,-10.35
2022-12-18T02:39:04.785Z,-10.37
2022-12-18T02:40:04.664Z,-10.38
2022-12-18T02:41:04.656Z,-10.39
2022-12-18T02:42:04.637Z,-10.37
2022-12-18T02:43:05.445Z,-10.41
2022-12-18T02:44:04.623Z,-10.41
2022-12-18T02:45:04.606Z,-10.44
2022-12-18T02:46:04.701Z,-10.47
2022-12-18T02:47:04.595Z,-10.49
2022-12-18T02:48:05.474Z,-10.52
2022-12-18T02:49:06.164Z,-10.52
2022-12-18T02:50:05.282Z,-10.57
2022-12-18T02:51:04.534Z,-10.62
2022-12-18T02:52:04.544Z,-10.63
2022-12-18T02:53:04.565Z,-10.71
2022-12-18T02:54:04.702Z,-10.73
2022-12-18T02:55:05.313Z,-10.73
2022-12-18T02:56:05.230Z,-10.77
2022-12-18T02:57:04.489Z,-10.78
2022-12-18T02:58:04.496Z,-10.78
2022-12-18T02:59:04.603Z,-10.77
2022-12-18T03:00:04.431Z,-10.71
2022-12-18T03:01:04.450Z,-10.71
2022-12-18T03:02:04.646Z,-10.68
2022-12-18T03:03:04.494Z,-10.63
2022-12-18T03:04:04.380Z,-10.70
2022-12-18T03:05:04.951Z,-10.68
2022-12-18T03:06:05.007Z,-10.68
2022-12-18T03:07:04.364Z,-10.70
2022-12-18T03:08:05.088Z,-10.71
2022-12-18T03:09:04.339Z,-10.71
2022-12-18T03:10:05.228Z,-10.71
2022-12-18T03:11:04.308Z,-10.74
2022-12-18T03:12:04.298Z,-10.76
2022-12-18T03:13:04.329Z,-10.77
2022-12-18T03:14:04.320Z,-10.77
2022-12-18T03:15:04.269Z,-10.80
2022-12-18T03:16:04.249Z,-10.80
2022-12-18T03:17:04.294Z,-10.77
2022-12-18T03:18:04.266Z,-10.85
2022-12-18T03:19:04.239Z,-10.89
2022-12-18T03:20:04.215Z,-10.85
2022-12-18T03:21:04.236Z,-10.86
2022-12-18T03:22:04.184Z,-10.89
2022-12-18T03:23:04.196Z,-10.88
2022-12-18T03:24:04.155Z,-10.88
2022-12-18T03:25:04.146Z,-10.85
2022-12-18T03:26:07.472Z,-10.85
2022-12-18T03:27:04.143Z,-10.85
2022-12-18T03:28:04.139Z,-10.86
2022-12-18T03:29:04.100Z,-10.81
2022-12-18T03:30:04.095Z,-10.88
2022-12-18T03:31:04.130Z,-10.85
2022-12-18T03:32:04.076Z,-10.85
2022-12-18T03:33:04.088Z,-10.86
2022-12-18T03:34:04.037Z,-10.88
2022-12-18T03:35:04.248Z,-10.85
2022-12-18T03:36:04.239Z,-10.85
2022-12-18T03:37:04.025Z,-10.88
2022-12-18T03:38:04.011Z,-10.86
2022-12-18T03:39:03.981Z,-10.86
2022-12-18T03:40:04.908Z,-10.85
2022-12-18T03:41:03.970Z,-10.81
2022-12-18T03:42:03.940Z,-10.78
2022-12-18T03:43:03.970Z,-10.81
2022-12-18T03:44:03.930Z,-10.85
2022-12-18T03:45:03.914Z,-10.80
2022-12-18T03:46:03.991Z,-10.85
2022-12-18T03:47:03.900Z,-10.80
2022-12-18T03:48:03.900Z,-10.80
2022-12-18T03:49:03.869Z,-10.78
2022-12-18T03:50:07.183Z,-10.78
2022-12-18T03:51:05.696Z,-10.74
2022-12-18T03:52:04.250Z,-10.74
2022-12-18T03:53:03.858Z,-10.77
2022-12-18T03:54:03.816Z,-10.76
2022-12-18T03:55:03.803Z,-10.74
2022-12-18T03:56:03.779Z,-10.78
2022-12-18T03:57:03.780Z,-10.77
2022-12-18T03:58:03.778Z,-10.78
2022-12-18T03:59:03.748Z,-10.78
2022-12-18T04:00:03.749Z,-10.78
2022-12-18T04:01:04.264Z,-10.78
2022-12-18T04:02:03.890Z,-10.74
2022-12-18T04:03:03.779Z,-10.70
2022-12-18T04:04:03.773Z,-10.68
2022-12-18T04:05:03.683Z,-10.67
2022-12-18T04:06:04.295Z,-10.62
2022-12-18T04:07:04.251Z,-10.60
2022-12-18T04:08:03.676Z,-10.59
2022-12-18T04:09:03.633Z,-10.56
2022-12-18T04:10:03.615Z,-10.50
2022-12-18T04:11:03.616Z,-10.49
2022-12-18T04:12:03.603Z,-10.39
2022-12-18T04:13:03.624Z,-10.35
2022-12-18T04:14:07.045Z,-10.34
2022-12-18T04:15:03.571Z,-10.32
2022-12-18T04:16:03.673Z,-10.28
2022-12-18T04:17:03.570Z,-10.21
2022-12-18T04:18:03.551Z,-10.17
2022-12-18T04:19:03.525Z,-10.20
2022-12-18T04:20:04.242Z,-10.18
2022-12-18T04:21:03.492Z,-10.20
2022-12-18T04:22:03.529Z,-10.23
2022-12-18T04:23:03.532Z,-10.21
2022-12-18T04:24:03.469Z,-10.21
2022-12-18T04:25:03.601Z,-10.20
2022-12-18T04:26:03.456Z,-10.24
2022-12-18T04:27:03.708Z,-10.24
2022-12-18T04:28:03.439Z,-10.28
2022-12-18T04:29:03.411Z,-10.29
2022-12-18T04:30:03.407Z,-10.29
2022-12-18T04:31:03.466Z,-10.28
2022-12-18T04:32:03.417Z,-10.28
2022-12-18T04:33:03.379Z,-10.26
2022-12-18T04:34:03.336Z,-10.23
2022-12-18T04:35:03.347Z,-10.23
2022-12-18T04:36:03.328Z,-10.24
2022-12-18T04:37:04.257Z,-10.21
2022-12-18T04:38:04.126Z,-10.26
2022-12-18T04:39:03.295Z,-10.28
2022-12-18T04:40:03.298Z,-10.32
2022-12-18T04:41:03.263Z,-10.31
2022-12-18T04:42:04.248Z,-10.38
2022-12-18T04:43:03.300Z,-10.34
2022-12-18T04:44:03.229Z,-10.38
2022-12-18T04:45:03.228Z,-10.39
2022-12-18T04:46:03.229Z,-10.41
2022-12-18T04:47:03.215Z,-10.46
2022-12-18T04:48:03.204Z,-10.49
2022-12-18T04:49:03.192Z,-10.50
2022-12-18T04:50:03.154Z,-10.57
2022-12-18T04:51:03.164Z,-10.59
2022-12-18T04:52:03.142Z,-10.59
2022-12-18T04:53:03.178Z,-10.63
2022-12-18T04:54:03.232Z,-10.63
2022-12-18T04:55:03.102Z,-10.63
2022-12-18T04:56:03.082Z,-10.57
2022-12-18T04:57:03.081Z,-10.59
2022-12-18T04:58:03.109Z,-10.52
2022-12-18T04:59:03.050Z,-10.52
2022-12-18T05:00:03.042Z,-10.49
2022-12-18T05:01:03.037Z,-10.38
2022-12-18T05:02:03.154Z,-10.35
2022-12-18T05:03:03.109Z,-10.31
2022-12-18T05:04:03.030Z,-10.31
2022-12-18T05:05:02.978Z,-10.26
2022-12-18T05:06:02.978Z,-10.23
2022-12-18T05:07:02.957Z,-10.20
2022-12-18T05:08:03.810Z,-10.16
2022-12-18T05:09:03.717Z,-10.16
2022-12-18T05:10:02.925Z,-10.16
2022-12-18T05:11:02.915Z,-10.18
2022-12-18T05:12:02.910Z,-10.20
2022-12-18T05:13:02.927Z,-10.17
2022-12-18T05:14:03.757Z,-10.24
2022-12-18T05:15:02.881Z,-10.21
2022-12-18T05:16:02.893Z,-10.23
2022-12-18T05:17:03.218Z,-10.17
2022-12-18T05:18:02.887Z,-10.21
2022-12-18T05:19:02.867Z,-10.20
2022-12-18T05:20:03.686Z,-10.17
2022-12-18T05:21:02.814Z,-10.17
2022-12-18T05:22:02.844Z,-10.18
2022-12-18T05:23:02.906Z,-10.20
2022-12-18T05:24:02.957Z,-10.20
2022-12-18T05:25:02.765Z,-10.23
2022-12-18T05:26:02.740Z,-10.26
2022-12-18T05:27:02.729Z,-10.32
2022-12-18T05:28:03.183Z,-10.35
2022-12-18T05:29:02.702Z,-10.41
2022-12-18T05:30:02.693Z,-10.44
2022-12-18T05:31:03.424Z,-10.49
2022-12-18T05:32:03.425Z,-10.55
2022-12-18T05:33:03.516Z,-10.56
2022-12-18T05:34:02.646Z,-10.60
2022-12-18T05:35:02.634Z,-10.62
2022-12-18T05:36:02.623Z,-10.66
2022-12-18T05:37:02.613Z,-10.68
2022-12-18T05:38:02.630Z,-10.60
2022-12-18T05:39:03.391Z,-10.63
2022-12-18T05:40:03.560Z,-10.66
2022-12-18T05:41:02.589Z,-10.56
2022-12-18T05:42:03.360Z,-10.55
2022-12-18T05:43:02.572Z,-10.55
2022-12-18T05:44:03.428Z,-10.53
2022-12-18T05:45:02.530Z,-10.49
2022-12-18T05:46:03.489Z,-10.53
2022-12-18T05:47:02.545Z,-10.50
2022-12-18T05:48:03.305Z,-10.56
2022-12-18T05:49:03.700Z,-10.53
2022-12-18T05:50:02.456Z,-10.55
2022-12-18T05:51:02.467Z,-10.50
2022-12-18T05:52:02.438Z,-10.53
2022-12-18T05:53:02.599Z,-10.57
2022-12-18T05:54:02.657Z,-10.57
2022-12-18T05:55:02.717Z,-10.60
2022-12-18T05:56:02.387Z,-10.62
2022-12-18T05:57:02.455Z,-10.66
2022-12-18T05:58:02.891Z,-10.62
2022-12-18T05:59:02.394Z,-10.63
2022-12-18T06:00:02.354Z,-10.62
2022-12-18T06:01:02.326Z,-10.59
2022-12-18T06:02:02.415Z,-10.59
2022-12-18T06:03:03.306Z,-10.57
2022-12-18T06:04:02.361Z,-10.57
2022-12-18T06:05:02.283Z,-10.57
2022-12-18T06:06:02.584Z,-10.56
2022-12-18T06:07:02.263Z,-10.50
2022-12-18T06:08:02.242Z,-10.47
2022-12-18T06:09:03.414Z,-10.39
2022-12-18T06:10:02.974Z,-10.37
2022-12-18T06:11:03.142Z,-10.34
2022-12-18T06:12:02.204Z,-10.29
2022-12-18T06:13:02.191Z,-10.28
2022-12-18T06:14:03.561Z,-10.23
2022-12-18T06:15:02.173Z,-10.21
2022-12-18T06:16:02.168Z,-10.23
2022-12-18T06:17:03.085Z,-10.23
2022-12-18T06:18:02.224Z,-10.18
2022-12-18T06:19:02.185Z,-10.21
2022-12-18T06:20:02.121Z,-10.24
2022-12-18T06:21:02.109Z,-10.23
2022-12-18T06:22:02.089Z,-10.21
2022-12-18T06:23:02.069Z,-10.18
2022-12-18T06:24:02.086Z,-10.23
2022-12-18T06:25:02.409Z,-10.24
2022-12-18T06:26:02.288Z,-10.26
2022-12-18T06:27:02.062Z,-10.26
2022-12-18T06:28:02.589Z,-10.29
2022-12-18T06:29:02.028Z,-10.29
2022-12-18T06:30:02.105Z,-10.31
2022-12-18T06:31:02.058Z,-10.32
2022-12-18T06:32:02.031Z,-10.32
2022-12-18T06:33:02.029Z,-10.32
2022-12-18T06:34:02.716Z,-10.32
2022-12-18T06:35:02.585Z,-10.37
2022-12-18T06:36:01.916Z,-10.38
2022-12-18T06:37:01.927Z,-10.35
2022-12-18T06:38:01.896Z,-10.31
2022-12-18T06:39:02.753Z,-10.18
2022-12-18T06:40:02.656Z,-10.08
2022-12-18T06:41:02.815Z,-10.00
2022-12-18T06:42:01.995Z,-9.93
2022-12-18T06:43:01.845Z,-9.84
2022-12-18T06:44:02.792Z,-9.79
2022-12-18T06:45:01.826Z,-9.77
2022-12-18T06:46:01.871Z,-9.72
2022-12-18T06:47:02.503Z,-9.72
2022-12-18T06:48:01.722Z,-9.68
2022-12-18T06:49:01.759Z,-9.67
2022-12-18T06:50:01.830Z,-9.68
2022-12-18T06:51:01.814Z,-9.68
2022-12-18T06:52:01.685Z,-9.74
2022-12-18T06:53:01.983Z,-9.74
2022-12-18T06:54:01.868Z,-9.81
2022-12-18T06:55:02.161Z,-9.87
2022-12-18T06:56:07.882Z,-9.92
2022-12-18T06:57:03.318Z,-9.97
2022-12-18T06:58:01.609Z,-10.02
2022-12-18T06:59:01.639Z,-10.11
2022-12-18T07:00:02.138Z,-10.14
2022-12-18T07:01:02.455Z,-10.18
2022-12-18T07:02:01.682Z,-10.24
2022-12-18T07:03:01.648Z,-10.34
2022-12-18T07:04:02.397Z,-10.34
2022-12-18T07:05:04.893Z,-10.42
2022-12-18T07:06:02.507Z,-10.47
2022-12-18T07:07:01.518Z,-10.46
2022-12-18T07:08:01.496Z,-10.53
2022-12-18T07:09:01.521Z,-10.56
2022-12-18T07:10:01.480Z,-10.53
2022-12-18T07:11:02.617Z,-10.55
2022-12-18T07:12:02.398Z,-10.56
2022-12-18T07:13:01.437Z,-10.60
2022-12-18T07:14:01.445Z,-10.62
2022-12-18T07:15:02.373Z,-10.66
2022-12-18T07:16:02.300Z,-10.68
2022-12-18T07:17:02.319Z,-10.67
2022-12-18T07:18:01.393Z,-10.63
2022-12-18T07:19:01.392Z,-10.66
2022-12-18T07:20:01.405Z,-10.68
2022-12-18T07:21:01.347Z,-10.68
2022-12-18T07:22:01.342Z,-10.70
2022-12-18T07:23:01.684Z,-10.68
2022-12-18T07:24:01.346Z,-10.68
2022-12-18T07:25:01.307Z,-10.63
2022-12-18T07:26:01.843Z,-10.66
2022-12-18T07:27:01.907Z,-10.63
2022-12-18T07:28:01.952Z,-10.62
2022-12-18T07:29:01.285Z,-10.66
2022-12-18T07:30:01.244Z,-10.66
2022-12-18T07:31:01.241Z,-10.66
2022-12-18T07:32:01.262Z,-10.70
2022-12-18T07:33:01.212Z,-10.71
2022-12-18T07:34:02.079Z,-10.71
2022-12-18T07:35:01.179Z,-10.73
2022-12-18T07:36:01.171Z,-10.74
2022-12-18T07:37:02.054Z,-10.74
2022-12-18T07:38:01.157Z,-10.78
2022-12-18T07:39:01.241Z,-10.77
2022-12-18T07:40:01.118Z,-10.81
2022-12-18T07:41:02.044Z,-10.85
2022-12-18T07:42:02.649Z,-10.86
2022-12-18T07:43:01.120Z,-10.88
2022-12-18T07:44:01.083Z,-10.85
2022-12-18T07:45:01.798Z,-10.80
2022-12-18T07:46:01.500Z,-10.80
2022-12-18T07:47:01.060Z,-10.80
2022-12-18T07:48:01.088Z,-10.76
2022-12-18T07:49:01.034Z,-10.76
2022-12-18T07:50:01.198Z,-10.71
2022-12-18T07:51:00.996Z,-10.76
2022-12-18T07:52:00.988Z,-10.74
2022-12-18T07:53:00.971Z,-10.70
2022-12-18T07:54:01.029Z,-10.74
2022-12-18T07:55:00.975Z,-10.76
2022-12-18T07:56:26.058Z,-10.71
2022-12-18T07:57:01.925Z,-10.70
2022-12-18T07:58:01.645Z,-10.73
2022-12-18T07:59:01.014Z,-10.71
2022-12-18T08:00:00.924Z,-10.63
2022-12-18T08:01:00.936Z,-10.62
2022-12-18T08:02:01.043Z,-10.63
2022-12-18T08:03:00.953Z,-10.63
2022-12-18T08:04:00.852Z,-10.60
2022-12-18T08:05:00.863Z,-10.57
2022-12-18T08:06:00.823Z,-10.56
2022-12-18T08:07:00.826Z,-10.55
2022-12-18T08:08:01.632Z,-10.49
2022-12-18T08:09:00.801Z,-10.39
2022-12-18T08:10:01.701Z,-10.32
2022-12-18T08:11:00.778Z,-10.24
2022-12-18T08:12:01.727Z,-10.23
2022-12-18T08:13:05.128Z,-10.21
2022-12-18T08:14:01.570Z,-10.18
2022-12-18T08:15:01.476Z,-10.16
2022-12-18T08:16:00.705Z,-10.08
2022-12-18T08:17:00.791Z,-10.00
2022-12-18T08:18:00.781Z,-9.90
2022-12-18T08:19:00.838Z,-9.82
2022-12-18T08:20:00.694Z,-9.75
2022-12-18T08:21:00.954Z,-9.67
2022-12-18T08:22:01.008Z,-9.61
2022-12-18T08:23:01.054Z,-9.57
2022-12-18T08:24:00.607Z,-9.53
2022-12-18T08:25:00.655Z,-9.49
2022-12-18T08:26:00.587Z,-9.46
2022-12-18T08:28:01.558Z,-9.38
2022-12-18T08:29:01.025Z,-9.28
2022-12-18T08:30:00.586Z,-9.24
2022-12-18T08:31:00.587Z,-9.24
2022-12-18T08:32:01.433Z,-9.21
2022-12-18T08:33:00.509Z,-9.21
2022-12-18T08:34:01.445Z,-9.18
2022-12-18T08:35:00.536Z,-9.12
2022-12-18T08:36:00.473Z,-9.10
2022-12-18T08:37:00.529Z,-9.05
2022-12-18T08:38:01.306Z,-9.02
2022-12-18T08:39:00.436Z,-8.97
2022-12-18T08:40:01.013Z,-8.88
2022-12-18T08:41:00.428Z,-8.82
2022-12-18T08:42:03.047Z,-8.78
2022-12-18T08:43:02.163Z,-8.70
2022-12-18T08:44:01.344Z,-8.61
2022-12-18T08:45:01.165Z,-8.53
2022-12-18T08:46:00.397Z,-8.45
2022-12-18T08:47:00.374Z,-8.40
2022-12-18T08:48:00.378Z,-8.35
2022-12-18T08:49:00.323Z,-8.28
2022-12-18T08:50:00.472Z,-8.25
2022-12-18T08:51:00.294Z,-8.22
2022-12-18T08:52:00.280Z,-8.10
2022-12-18T08:53:00.273Z,-8.06
2022-12-18T08:54:00.780Z,-7.94
2022-12-18T08:55:00.769Z,-7.91
2022-12-18T08:56:00.280Z,-7.85
2022-12-18T08:57:00.247Z,-7.78
2022-12-18T08:58:00.790Z,-7.73
2022-12-18T08:59:00.930Z,-7.68
2022-12-18T09:00:00.999Z,-7.56
2022-12-18T09:01:00.232Z,-7.55
2022-12-18T09:02:00.230Z,-7.52
2022-12-18T09:03:00.325Z,-7.45
2022-12-18T09:04:00.137Z,-7.45
2022-12-18T09:05:01.029Z,-7.38
2022-12-18T09:06:00.116Z,-7.37
2022-12-18T09:07:00.169Z,-7.34
2022-12-18T09:08:00.098Z,-7.35
2022-12-18T09:09:00.159Z,-7.27
2022-12-18T09:10:00.467Z,-7.27
2022-12-18T09:11:00.082Z,-7.20
2022-12-18T09:12:00.046Z,-7.18
2022-12-18T09:13:00.788Z,-7.16
2022-12-18T09:14:00.925Z,-7.11
2022-12-18T09:15:00.838Z,-7.11
2022-12-18T09:16:01.026Z,-7.10
2022-12-18T09:17:00.296Z,-7.13
2022-12-18T09:18:01.443Z,-7.05
2022-12-18T09:19:00.192Z,-7.02
2022-12-18T09:20:00.170Z,-7.00
2022-12-18T09:21:00.294Z,-6.98
2022-12-18T09:22:00.013Z,-6.95
2022-12-18T09:23:04.208Z,-7.00
2022-12-18T09:24:00.457Z,-6.96
2022-12-18T09:24:59.932Z,-6.98
2022-12-18T09:26:00.025Z,-7.00
2022-12-18T09:26:59.923Z,-6.95
2022-12-18T09:27:59.871Z,-6.90
2022-12-18T09:28:59.879Z,-6.92
2022-12-18T09:29:59.862Z,-6.85
2022-12-18T09:31:00.821Z,-6.78
2022-12-18T09:31:59.830Z,-6.78
2022-12-18T09:32:59.800Z,-6.78
2022-12-18T09:33:59.799Z,-6.78
2022-12-18T09:34:59.951Z,-6.78
2022-12-18T09:35:59.751Z,-6.74
2022-12-18T09:36:59.762Z,-6.72
2022-12-18T09:38:00.561Z,-6.71
2022-12-18T09:39:02.637Z,-6.72
2022-12-18T09:40:01.805Z,-6.67
2022-12-18T09:40:59.690Z,-6.64
2022-12-18T09:42:00.550Z,-6.74
2022-12-18T09:43:00.447Z,-6.75
2022-12-18T09:43:59.677Z,-6.74
2022-12-18T09:45:00.561Z,-6.67
2022-12-18T09:45:59.727Z,-6.66
2022-12-18T09:46:59.656Z,-6.71
2022-12-18T09:47:59.629Z,-6.61
2022-12-18T09:48:59.621Z,-6.61
2022-12-18T09:49:59.712Z,-6.56
2022-12-18T09:51:00.036Z,-6.59
2022-12-18T09:52:00.176Z,-6.52
2022-12-18T09:52:59.644Z,-6.56
2022-12-18T09:54:00.307Z,-6.53
2022-12-18T09:55:00.099Z,-6.55
2022-12-18T09:55:59.516Z,-6.48
2022-12-18T09:56:59.584Z,-6.50
2022-12-18T09:57:59.533Z,-6.50
2022-12-18T09:58:59.490Z,-6.48
2022-12-18T10:00:00.061Z,-6.52
2022-12-18T10:00:59.611Z,-6.52
2022-12-18T10:02:00.501Z,-6.53
2022-12-18T10:02:59.788Z,-6.53
2022-12-18T10:04:01.888Z,-6.48
2022-12-18T10:04:59.452Z,-6.48
2022-12-18T10:05:59.984Z,-6.47
2022-12-18T10:07:03.158Z,-6.44
2022-12-18T10:08:00.953Z,-6.34
2022-12-18T10:08:59.552Z,-6.31
2022-12-18T10:09:59.704Z,-6.21
2022-12-18T10:11:00.088Z,-6.14
2022-12-18T10:11:59.338Z,-5.99
2022-12-18T10:13:04.318Z,-5.92
2022-12-18T10:14:00.937Z,-5.90
2022-12-18T10:14:59.672Z,-5.85
2022-12-18T10:15:59.666Z,-5.85
2022-12-18T10:17:00.340Z,-5.81
2022-12-18T10:17:59.428Z,-5.81
2022-12-18T10:18:59.390Z,-5.78
2022-12-18T10:19:59.728Z,-5.77
2022-12-18T10:20:59.306Z,-5.69
2022-12-18T10:21:59.326Z,-5.66
2022-12-18T10:22:59.346Z,-5.60
2022-12-18T10:23:59.907Z,-5.57
2022-12-18T10:24:59.775Z,-5.51
2022-12-18T10:26:00.170Z,-5.46
2022-12-18T10:26:59.537Z,-5.38
2022-12-18T10:27:59.274Z,-5.33
2022-12-18T10:29:05.134Z,-5.33
2022-12-18T10:30:00.247Z,-5.25
2022-12-18T10:31:00.008Z,-5.13
2022-12-18T10:31:59.798Z,-5.06
2022-12-18T10:32:59.388Z,-4.97
2022-12-18T10:33:59.672Z,-4.88
2022-12-18T10:35:01.162Z,-4.70
2022-12-18T10:36:00.496Z,-4.62
2022-12-18T10:36:59.163Z,-4.67
2022-12-18T10:37:59.655Z,-4.66
2022-12-18T10:38:59.174Z,-4.51
2022-12-18T10:39:59.605Z,-4.49
2022-12-18T10:40:59.825Z,-4.46
2022-12-18T10:42:01.744Z,-4.41
2022-12-18T10:42:59.634Z,-4.40
2022-12-18T10:43:59.288Z,-4.37
2022-12-18T10:44:59.250Z,-4.27
2022-12-18T10:45:59.072Z,-4.22
2022-12-18T10:46:59.057Z,-4.16
2022-12-18T10:47:59.128Z,-4.16
2022-12-18T10:48:59.211Z,-4.10
2022-12-18T10:49:58.883Z,-4.16
2022-12-18T10:51:10.944Z,-4.20
2022-12-18T10:52:01.018Z,-4.19
2022-12-18T10:52:58.860Z,-4.16
2022-12-18T10:53:59.428Z,-4.19
2022-12-18T10:54:58.826Z,-4.17
2022-12-18T10:55:58.830Z,-4.20
2022-12-18T10:56:58.813Z,-4.17
2022-12-18T10:57:59.631Z,-4.23
2022-12-18T10:58:58.759Z,-4.28
2022-12-18T10:59:58.792Z,-4.33
2022-12-18T11:00:58.768Z,-4.31
2022-12-18T11:01:58.917Z,-4.33
2022-12-18T11:02:59.016Z,-4.37
2022-12-18T11:04:02.069Z,-4.34
2022-12-18T11:04:58.782Z,-4.38
2022-12-18T11:05:58.843Z,-4.34
2022-12-18T11:06:58.865Z,-4.31
2022-12-18T11:07:58.839Z,-4.36
2022-12-18T11:08:58.746Z,-4.33
2022-12-18T11:09:58.693Z,-4.38
2022-12-18T11:10:58.817Z,-4.33
2022-12-18T11:11:58.666Z,-4.36
2022-12-18T11:12:58.627Z,-4.30
2022-12-18T11:13:58.644Z,-4.30
2022-12-18T11:14:58.575Z,-4.27
2022-12-18T11:15:58.612Z,-4.23
2022-12-18T11:17:27.766Z,-4.27
2022-12-18T11:17:59.913Z,-4.23
2022-12-18T11:18:58.616Z,-4.27
2022-12-18T11:19:58.554Z,-4.26
2022-12-18T11:20:59.066Z,-4.23
2022-12-18T11:21:58.832Z,-4.22
2022-12-18T11:22:58.554Z,-4.19
2022-12-18T11:23:58.743Z,-4.17
2022-12-18T11:25:30.129Z,-4.12
2022-12-18T11:25:59.573Z,-4.07
2022-12-18T11:26:59.924Z,-4.09
2022-12-18T11:27:59.130Z,-4.01
2022-12-18T11:28:59.162Z,-3.97
2022-12-18T11:30:03.082Z,-3.91
2022-12-18T11:30:58.554Z,-3.84
2022-12-18T11:31:58.633Z,-3.80
2022-12-18T11:32:59.292Z,-3.79
2022-12-18T11:34:27.590Z,-3.74
2022-12-18T11:35:00.176Z,-3.74
2022-12-18T11:35:58.339Z,-3.69
2022-12-18T11:36:58.952Z,-3.65
2022-12-18T11:37:58.322Z,-3.65
2022-12-18T11:39:01.702Z,-3.72
2022-12-18T11:39:58.937Z,-3.68
2022-12-18T11:40:58.850Z,-3.69
2022-12-18T11:41:58.399Z,-3.65
2022-12-18T11:42:58.419Z,-3.59
2022-12-18T11:43:58.394Z,-3.54
2022-12-18T11:44:58.450Z,-3.51
2022-12-18T11:45:58.178Z,-3.46
2022-12-18T11:46:58.358Z,-3.44
2022-12-18T11:47:58.908Z,-3.43
2022-12-18T11:48:59.574Z,-3.37
2022-12-18T11:49:58.439Z,-3.33
2022-12-18T11:50:58.188Z,-3.33
2022-12-18T11:51:58.808Z,-3.25
2022-12-18T11:53:04.234Z,-3.26
2022-12-18T11:53:59.220Z,-3.26
2022-12-18T11:54:58.660Z,-3.26
2022-12-18T11:55:58.657Z,-3.23
2022-12-18T11:56:58.258Z,-3.22
2022-12-18T11:57:58.766Z,-3.18
2022-12-18T11:58:58.235Z,-3.21
2022-12-18T11:59:58.216Z,-3.16
2022-12-18T12:00:58.105Z,-3.18
2022-12-18T12:01:58.306Z,-3.13
2022-12-18T12:02:58.087Z,-3.13
2022-12-18T12:03:58.166Z,-3.12
2022-12-18T12:04:58.350Z,-3.10
2022-12-18T12:05:58.498Z,-3.07
2022-12-18T12:07:03.234Z,-3.07
2022-12-18T12:07:59.446Z,-3.07
2022-12-18T12:08:58.735Z,-3.08
2022-12-18T12:09:58.522Z,-2.98
2022-12-18T12:10:58.494Z,-3.01
2022-12-18T12:11:59.400Z,-3.00
2022-12-18T12:12:59.637Z,-3.02
2022-12-18T12:13:57.967Z,-3.00
2022-12-18T12:14:58.090Z,-3.02
2022-12-18T12:15:58.543Z,-3.00
2022-12-18T12:16:58.262Z,-2.97
2022-12-18T12:17:58.908Z,-2.94
2022-12-18T12:18:58.918Z,-2.90
2022-12-18T12:20:01.620Z,-2.89
2022-12-18T12:20:58.659Z,-2.89
2022-12-18T12:21:58.065Z,-2.82
2022-12-18T12:22:58.809Z,-2.77
2022-12-18T12:23:58.032Z,-2.74
2022-12-18T12:24:57.865Z,-2.77
2022-12-18T12:25:57.776Z,-2.71
2022-12-18T12:26:58.292Z,-2.71
2022-12-18T12:27:57.829Z,-2.77
2022-12-18T12:28:57.812Z,-2.66
2022-12-18T12:29:57.689Z,-2.69
2022-12-18T12:30:58.430Z,-2.68
2022-12-18T12:31:58.124Z,-2.74
2022-12-18T12:32:57.993Z,-2.71
2022-12-18T12:33:58.211Z,-2.74
2022-12-18T12:35:00.914Z,-2.74
2022-12-18T12:35:58.690Z,-2.71
2022-12-18T12:36:58.237Z,-2.71
2022-12-18T12:37:58.398Z,-2.72
2022-12-18T12:38:57.629Z,-2.72
2022-12-18T12:39:58.109Z,-2.66
2022-12-18T12:41:02.724Z,-2.69